Time;durP1;ratioP1;P1;durP2;ratioP2;P2;SDS_P1;SDS_P2;PMS_P1;PMS_P2;Temp;Humidity;BMP_temperature;BMP_pressure;BME280_temperature;BME280_humidity;BME280_pressure;Samples;Min_cycle;Max_cycle;Signal;HPM_P1;HPM_P2
2023/04/03 00:01:17;0.00;0.00;0.62;0.00;0.00;0.62;1.30;0.80;;;23.20;21.80;;;;;;2264535;61;20710;-64
2023/04/03 00:04:01;0.00;0.00;0.62;0.00;0.00;0.62;1.50;0.80;;;23.10;21.70;;;;;;2263846;61;20391;-65
2023/04/03 00:06:46;0.00;0.00;0.62;0.00;0.00;0.62;1.83;0.70;;;23.20;21.80;;;;;;2264509;61;20391;-65
2023/04/03 00:09:31;0.00;0.00;0.62;0.00;0.00;0.62;1.40;0.67;;;23.10;21.80;;;;;;2263970;61;20407;-68
2023/04/03 00:12:15;0.00;0.00;0.62;0.00;0.00;0.62;1.50;0.80;;;23.10;21.70;;;;;;2263784;61;20395;-65
2023/04/03 00:15:01;0.00;0.00;0.62;0.00;0.00;0.62;2.20;0.93;;;23.10;21.80;;;;;;2263972;61;20352;-65
2023/04/03 00:17:46;0.00;0.00;0.62;0.00;0.00;0.62;1.47;0.70;;;23.10;21.80;;;;;;2264174;61;20445;-66
2023/04/03 00:20:31;0.00;0.00;0.62;0.00;0.00;0.62;3.87;1.03;;;23.20;21.80;;;;;;2263727;61;20448;-65
2023/04/03 00:23:16;0.00;0.00;0.62;0.00;0.00;0.62;1.33;0.70;;;23.00;21.70;;;;;;2264254;61;20982;-65
2023/04/03 00:26:01;0.00;0.00;0.62;0.00;0.00;0.62;2.00;0.70;;;23.10;21.80;;;;;;2263861;61;20464;-66
2023/04/03 00:28:46;0.00;0.00;0.62;0.00;0.00;0.62;1.60;0.80;;;23.10;21.80;;;;;;2264332;61;20384;-66
2023/04/03 00:31:32;0.00;0.00;0.62;0.00;0.00;0.62;1.30;0.70;;;23.10;21.80;;;;;;2264337;61;20876;-65
2023/04/03 00:34:17;0.00;0.00;0.62;0.00;0.00;0.62;1.30;0.70;;;23.00;21.70;;;;;;2263114;61;20391;-65
2023/04/03 00:37:01;0.00;0.00;0.62;0.00;0.00;0.62;1.40;0.73;;;23.00;21.70;;;;;;2264445;61;20810;-63
2023/04/03 00:39:46;0.00;0.00;0.62;0.00;0.00;0.62;1.50;0.67;;;23.00;21.70;;;;;;2264042;61;20495;-62
2023/04/03 00:42:31;0.00;0.00;0.62;0.00;0.00;0.62;1.63;0.90;;;23.00;21.70;;;;;;2264171;61;20363;-64
2023/04/03 00:45:34;0.00;0.00;0.62;0.00;0.00;0.62;1.73;0.70;;;23.00;21.70;;;;;;2261250;61;20987;-65
2023/04/03 00:48:27;0.00;0.00;0.62;0.00;0.00;0.62;1.40;0.70;;;23.00;21.80;;;;;;2264875;61;20403;-65
2023/04/03 00:51:18;0.00;0.00;0.62;0.00;0.00;0.62;1.60;0.90;;;23.00;21.80;;;;;;2265198;61;20396;-65
2023/04/03 00:54:07;0.00;0.00;0.62;0.00;0.00;0.62;1.53;0.70;;;22.90;21.70;;;;;;2264706;61;20368;-68
2023/04/03 00:56:53;0.00;0.00;0.62;0.00;0.00;0.62;1.40;0.63;;;22.90;21.70;;;;;;2261563;61;20388;-65
2023/04/03 00:59:43;0.00;0.00;0.62;0.00;0.00;0.62;1.40;0.80;;;22.90;21.70;;;;;;2265074;61;20363;-65
2023/04/03 01:02:29;0.00;0.00;0.62;0.00;0.00;0.62;1.57;0.90;;;22.90;21.70;;;;;;2264415;61;20371;-65
2023/04/03 01:05:16;0.00;0.00;0.62;0.00;0.00;0.62;1.70;0.90;;;22.90;21.80;;;;;;2261524;61;20460;-64
2023/04/03 01:08:02;0.00;0.00;0.62;0.00;0.00;0.62;1.80;0.70;;;22.90;21.70;;;;;;2261927;61;20427;-66
2023/04/03 01:10:47;0.00;0.00;0.62;0.00;0.00;0.62;1.40;0.70;;;22.90;21.80;;;;;;2264232;61;20460;-66
2023/04/03 01:13:33;0.00;0.00;0.62;0.00;0.00;0.62;1.30;0.70;;;22.90;21.80;;;;;;2264513;61;20399;-65
2023/04/03 01:16:18;0.00;0.00;0.62;0.00;0.00;0.62;1.90;0.93;;;22.90;21.80;;;;;;2265026;61;20452;-65
2023/04/03 01:19:05;0.00;0.00;0.62;0.00;0.00;0.62;1.20;0.70;;;22.80;21.70;;;;;;2263985;61;20384;-67
2023/04/03 01:22:14;0.00;0.00;0.62;0.00;0.00;0.62;1.30;0.70;;;22.80;21.70;;;;;;2262054;61;20448;-66
2023/04/03 01:24:59;0.00;0.00;0.62;0.00;0.00;0.62;1.40;0.80;;;22.80;21.80;;;;;;2258676;61;20470;-66
2023/04/03 01:27:45;0.00;0.00;0.62;0.00;0.00;0.62;1.57;0.87;;;22.80;21.70;;;;;;2264531;61;20430;-64
2023/04/03 01:30:34;0.00;0.00;0.62;0.00;0.00;0.62;1.50;0.70;;;22.80;21.70;;;;;;2264882;61;20356;-64
2023/04/03 01:33:21;0.00;0.00;0.62;0.00;0.00;0.62;1.40;0.90;;;22.80;21.80;;;;;;2264187;61;20359;-65
2023/04/03 01:36:10;0.00;0.00;0.62;0.00;0.00;0.62;1.63;0.77;;;22.80;21.80;;;;;;2264640;61;20372;-65
2023/04/03 01:38:56;0.00;0.00;0.62;0.00;0.00;0.62;1.30;0.70;;;22.70;21.70;;;;;;2265060;61;20403;-65
2023/04/03 01:41:41;0.00;0.00;0.62;0.00;0.00;0.62;1.30;0.70;;;22.70;21.70;;;;;;2264677;61;20367;-65
2023/04/03 01:44:32;0.00;0.00;0.62;0.00;0.00;0.62;1.33;0.70;;;22.70;21.70;;;;;;2264622;61;20407;-69
2023/04/03 01:47:17;0.00;0.00;0.62;0.00;0.00;0.62;1.50;0.80;;;22.70;21.70;;;;;;2264702;61;20831;-65
2023/04/03 01:50:03;0.00;0.00;0.62;0.00;0.00;0.62;1.30;0.70;;;22.70;21.80;;;;;;2263986;61;20384;-65
2023/04/03 01:52:51;0.00;0.00;0.62;0.00;0.00;0.62;2.37;0.70;;;22.70;21.70;;;;;;2258759;61;20384;-65
2023/04/03 01:55:36;0.00;0.00;0.62;0.00;0.00;0.62;1.60;0.90;;;22.70;21.70;;;;;;2264035;61;20368;-66
2023/04/03 01:58:20;0.00;0.00;0.62;0.00;0.00;0.62;1.30;0.70;;;22.70;21.80;;;;;;2261856;61;20442;-64
2023/04/03 02:01:07;0.00;0.00;0.62;0.00;0.00;0.62;1.43;0.77;;;22.70;21.80;;;;;;2264473;61;20364;-65
2023/04/03 02:03:52;0.00;0.00;0.62;0.00;0.00;0.62;1.40;0.70;;;22.60;21.70;;;;;;2264399;61;20392;-65
2023/04/03 02:06:38;0.00;0.00;0.62;0.00;0.00;0.62;1.33;0.70;;;22.60;21.70;;;;;;2265187;61;20380;-65
2023/04/03 02:09:22;0.00;0.00;0.62;0.00;0.00;0.62;1.60;0.80;;;22.60;21.70;;;;;;2260911;61;20514;-65
2023/04/03 02:12:07;0.00;0.00;0.62;0.00;0.00;0.62;1.20;0.60;;;22.60;21.70;;;;;;2261630;61;20372;-65
2023/04/03 02:14:52;0.00;0.00;0.62;0.00;0.00;0.62;1.80;0.90;;;22.60;21.70;;;;;;2265579;61;20529;-65
2023/04/03 02:17:38;0.00;0.00;0.62;0.00;0.00;0.62;2.53;1.10;;;22.60;21.70;;;;;;2265143;61;20794;-65
2023/04/03 02:20:23;0.00;0.00;0.62;0.00;0.00;0.62;1.40;0.60;;;22.60;21.70;;;;;;2265431;61;20426;-64
2023/04/03 02:23:09;0.00;0.00;0.62;0.00;0.00;0.62;1.20;0.60;;;22.60;21.80;;;;;;2259856;61;21008;-65
2023/04/03 02:26:04;0.00;0.00;0.62;0.00;0.00;0.62;1.30;0.70;;;22.60;21.80;;;;;;2264822;61;20663;-65
2023/04/03 02:28:49;0.00;0.00;0.62;0.00;0.00;0.62;1.43;0.70;;;22.60;21.80;;;;;;2265609;61;20521;-65
2023/04/03 02:31:34;0.00;0.00;0.62;0.00;0.00;0.62;1.80;1.10;;;22.50;21.70;;;;;;2264750;61;20367;-65
2023/04/03 02:34:20;0.00;0.00;0.62;0.00;0.00;0.62;1.30;0.60;;;22.50;21.70;;;;;;2264726;61;20915;-65
2023/04/03 02:37:06;0.00;0.00;0.62;0.00;0.00;0.62;1.30;0.70;;;22.50;21.70;;;;;;2265096;61;20861;-65
2023/04/03 02:39:52;0.00;0.00;0.62;0.00;0.00;0.62;1.50;0.70;;;22.50;21.70;;;;;;2264373;61;20364;-65
2023/04/03 02:42:37;0.00;0.00;0.62;0.00;0.00;0.62;1.30;0.63;;;22.50;21.70;;;;;;2265834;61;20364;-65
2023/04/03 02:45:23;0.00;0.00;0.62;0.00;0.00;0.62;1.67;0.70;;;22.50;21.70;;;;;;2263857;61;20577;-65
2023/04/03 02:48:08;0.00;0.00;0.62;0.00;0.00;0.62;1.40;0.70;;;22.50;21.80;;;;;;2264744;61;20863;-65
2023/04/03 02:50:54;0.00;0.00;0.62;0.00;0.00;0.62;1.30;0.60;;;22.50;21.70;;;;;;2264998;61;20364;-65
2023/04/03 02:53:38;0.00;0.00;0.62;0.00;0.00;0.62;1.30;0.70;;;22.50;21.70;;;;;;2264656;61;20776;-65
2023/04/03 02:56:30;0.00;0.00;0.62;0.00;0.00;0.62;1.47;0.67;;;22.50;21.70;;;;;;2264841;61;20418;-64
2023/04/03 02:59:15;0.00;0.00;0.62;0.00;0.00;0.62;1.30;0.70;;;22.40;21.70;;;;;;2264847;61;20517;-64
2023/04/03 03:02:03;0.00;0.00;0.62;0.00;0.00;0.62;1.77;0.60;;;22.40;21.70;;;;;;2264466;61;20379;-65
2023/04/03 03:04:47;0.00;0.00;0.62;0.00;0.00;0.62;1.20;0.63;;;22.40;21.70;;;;;;2264994;61;20453;-64
2023/04/03 03:07:32;0.00;0.00;0.62;0.00;0.00;0.62;1.87;0.80;;;22.40;21.70;;;;;;2264678;61;20383;-65
2023/04/03 03:10:18;0.00;0.00;0.62;0.00;0.00;0.62;1.40;0.63;;;22.40;21.70;;;;;;2264206;61;20966;-65
2023/04/03 03:13:05;0.00;0.00;0.62;0.00;0.00;0.62;1.43;0.70;;;22.40;21.70;;;;;;2264941;61;20893;-64
2023/04/03 03:15:50;0.00;0.00;0.62;0.00;0.00;0.62;1.33;0.70;;;22.40;21.70;;;;;;2265002;61;20371;-65
2023/04/03 03:18:35;0.00;0.00;0.62;0.00;0.00;0.62;1.63;0.70;;;22.40;22.20;;;;;;2262338;61;20380;-64
2023/04/03 03:21:20;0.00;0.00;0.62;0.00;0.00;0.62;1.37;0.77;;;22.40;21.70;;;;;;2265313;61;20372;-68
2023/04/03 03:24:05;0.00;0.00;0.62;0.00;0.00;0.62;1.40;0.70;;;22.40;21.70;;;;;;2265014;61;20460;-64
2023/04/03 03:26:51;0.00;0.00;0.62;0.00;0.00;0.62;1.20;0.60;;;22.40;21.70;;;;;;2264832;61;20924;-64
2023/04/03 03:29:37;0.00;0.00;0.62;0.00;0.00;0.62;1.80;0.80;;;22.30;21.60;;;;;;2264852;61;20503;-64
2023/04/03 03:32:23;0.00;0.00;0.62;0.00;0.00;0.62;1.30;0.70;;;22.30;21.70;;;;;;2264288;61;20398;-64
2023/04/03 03:35:08;0.00;0.00;0.62;0.00;0.00;0.62;1.20;0.70;;;22.30;21.70;;;;;;2265132;61;20407;-64
2023/04/03 03:37:53;0.00;0.00;0.62;0.00;0.00;0.62;1.60;0.80;;;22.30;21.70;;;;;;2265154;61;20948;-64
2023/04/03 03:40:38;0.00;0.00;0.62;0.00;0.00;0.62;1.30;0.70;;;22.30;21.70;;;;;;2264531;61;20392;-64
2023/04/03 03:43:24;0.00;0.00;0.62;0.00;0.00;0.62;1.70;0.90;;;22.30;21.70;;;;;;2262273;61;20470;-64
2023/04/03 03:46:12;0.00;0.00;0.62;0.00;0.00;0.62;1.40;0.70;;;22.30;21.70;;;;;;2265330;61;20423;-64
2023/04/03 03:48:57;0.00;0.00;0.62;0.00;0.00;0.62;1.20;0.60;;;22.30;21.70;;;;;;2264740;61;20415;-65
2023/04/03 03:51:42;0.00;0.00;0.62;0.00;0.00;0.62;1.20;0.67;;;22.30;21.70;;;;;;2265149;61;20762;-64
2023/04/03 03:54:26;0.00;0.00;0.62;0.00;0.00;0.62;1.70;0.87;;;22.30;21.70;;;;;;2264706;61;20364;-64
2023/04/03 03:57:12;0.00;0.00;0.62;0.00;0.00;0.62;1.53;0.70;;;22.30;21.70;;;;;;2262092;61;20442;-65
2023/04/03 03:59:56;0.00;0.00;0.62;0.00;0.00;0.62;1.40;0.70;;;22.20;21.60;;;;;;2264242;61;20368;-65
2023/04/03 04:02:43;0.00;0.00;0.62;0.00;0.00;0.62;1.30;0.70;;;22.20;21.60;;;;;;2264808;61;20537;-65
2023/04/03 04:05:32;0.00;0.00;0.62;0.00;0.00;0.62;1.30;0.70;;;22.20;21.60;;;;;;2259399;61;20364;-65
2023/04/03 04:08:19;0.00;0.00;0.62;0.00;0.00;0.62;1.30;0.70;;;22.20;21.60;;;;;;2265000;61;20937;-65
2023/04/03 04:11:04;0.00;0.00;0.62;0.00;0.00;0.62;1.60;0.70;;;22.20;21.60;;;;;;2264562;61;20368;-65
2023/04/03 04:13:49;0.00;0.00;0.62;0.00;0.00;0.62;1.40;0.73;;;22.20;21.60;;;;;;2261990;61;20884;-65
2023/04/03 04:16:36;0.00;0.00;0.62;0.00;0.00;0.62;1.80;0.80;;;22.20;21.60;;;;;;2264895;61;20391;-70
2023/04/03 04:19:28;0.00;0.00;0.62;0.00;0.00;0.62;1.30;0.60;;;22.20;21.60;;;;;;2261854;61;20402;-66
2023/04/03 04:22:13;0.00;0.00;0.62;0.00;0.00;0.62;2.13;0.93;;;22.20;21.60;;;;;;2265061;61;20373;-65
2023/04/03 04:24:58;0.00;0.00;0.62;0.00;0.00;0.62;1.73;0.80;;;22.20;21.60;;;;;;2264749;61;20360;-65
2023/04/03 04:27:43;0.00;0.00;0.62;0.00;0.00;0.62;1.30;0.60;;;22.20;21.60;;;;;;2262286;61;20430;-65
2023/04/03 04:30:31;0.00;0.00;0.62;0.00;0.00;0.62;1.60;0.70;;;22.20;21.60;;;;;;2264125;61;20388;-65
2023/04/03 04:33:16;0.00;0.00;0.62;0.00;0.00;0.62;1.50;0.80;;;22.20;21.60;;;;;;2264724;61;20341;-65
2023/04/03 04:36:04;0.00;0.00;0.62;0.00;0.00;0.62;1.43;0.70;;;22.20;21.70;;;;;;2261692;61;20402;-65
2023/04/03 04:38:52;0.00;0.00;0.62;0.00;0.00;0.62;1.40;0.60;;;22.10;21.60;;;;;;2261431;61;20371;-65
2023/04/03 04:41:39;0.00;0.00;0.62;0.00;0.00;0.62;2.00;0.80;;;22.20;21.70;;;;;;2264822;61;20399;-65
2023/04/03 04:44:25;0.00;0.00;0.62;0.00;0.00;0.62;1.30;0.70;;;22.10;21.60;;;;;;2264094;61;20360;-64
2023/04/03 04:47:10;0.00;0.00;0.62;0.00;0.00;0.62;1.40;0.70;;;22.10;21.60;;;;;;2264796;61;20722;-66
2023/04/03 04:49:55;0.00;0.00;0.62;0.00;0.00;0.62;1.30;0.60;;;22.10;21.60;;;;;;2264407;61;20419;-65
2023/04/03 04:52:41;0.00;0.00;0.62;0.00;0.00;0.62;1.30;0.70;;;22.10;21.60;;;;;;2261647;61;20376;-65
2023/04/03 04:55:26;0.00;0.00;0.62;0.00;0.00;0.62;1.20;0.60;;;22.10;21.60;;;;;;2264560;61;20498;-70
2023/04/03 04:58:11;0.00;0.00;0.62;0.00;0.00;0.62;1.20;0.60;;;22.10;21.60;;;;;;2264911;61;20423;-66
2023/04/03 05:01:00;0.00;0.00;0.62;0.00;0.00;0.62;1.30;0.60;;;22.10;21.60;;;;;;2264036;61;20457;-65
2023/04/03 05:03:45;0.00;0.00;0.62;0.00;0.00;0.62;1.30;0.67;;;22.10;21.60;;;;;;2264557;61;20428;-65
2023/04/03 05:06:31;0.00;0.00;0.62;0.00;0.00;0.62;1.70;0.70;;;22.10;21.60;;;;;;2264356;61;20716;-66
2023/04/03 05:09:19;0.00;0.00;0.62;0.00;0.00;0.62;1.43;0.70;;;22.10;21.60;;;;;;2264170;61;20388;-65
2023/04/03 05:12:05;0.00;0.00;0.62;0.00;0.00;0.62;1.53;0.70;;;22.00;21.50;;;;;;2264486;61;20411;-66
2023/04/03 05:14:56;0.00;0.00;0.62;0.00;0.00;0.62;1.30;0.60;;;22.10;21.60;;;;;;2264288;61;20363;-65
2023/04/03 05:17:41;0.00;0.00;0.62;0.00;0.00;0.62;1.20;0.60;;;22.00;21.50;;;;;;2264363;61;20433;-65
2023/04/03 05:20:30;0.00;0.00;0.62;0.00;0.00;0.62;1.60;0.77;;;22.00;21.50;;;;;;2264272;61;20392;-65
2023/04/03 05:23:16;0.00;0.00;0.62;0.00;0.00;0.62;2.43;0.77;;;22.10;21.60;;;;;;2261464;61;20372;-67
2023/04/03 05:26:02;0.00;0.00;0.62;0.00;0.00;0.62;1.30;0.70;;;22.00;21.50;;;;;;2265046;61;20418;-65
2023/04/03 05:28:47;0.00;0.00;0.62;0.00;0.00;0.62;1.30;0.60;;;22.00;21.50;;;;;;2261368;61;20388;-65
2023/04/03 05:31:33;0.00;0.00;0.62;0.00;0.00;0.62;1.30;0.60;;;22.00;21.60;;;;;;2258958;61;20403;-65
2023/04/03 05:34:19;0.00;0.00;0.62;0.00;0.00;0.62;1.50;0.80;;;22.00;21.60;;;;;;2264311;61;20498;-64
2023/04/03 05:37:06;0.00;0.00;0.62;0.00;0.00;0.62;1.50;0.70;;;22.00;21.50;;;;;;2264378;61;20467;-66
2023/04/03 05:39:51;0.00;0.00;0.62;0.00;0.00;0.62;1.67;0.87;;;22.00;21.60;;;;;;2264617;61;20380;-65
2023/04/03 05:42:38;0.00;0.00;0.62;0.00;0.00;0.62;1.40;0.60;;;22.00;21.60;;;;;;2265304;61;20410;-66
2023/04/03 05:45:24;0.00;0.00;0.62;0.00;0.00;0.62;2.27;1.00;;;22.00;21.60;;;;;;2264234;61;20411;-65
2023/04/03 05:48:10;0.00;0.00;0.62;0.00;0.00;0.62;1.90;0.77;;;22.00;21.60;;;;;;2264189;61;20510;-67
2023/04/03 05:50:56;0.00;0.00;0.62;0.00;0.00;0.62;1.40;0.80;;;22.00;21.60;;;;;;2263912;61;20672;-65
2023/04/03 05:53:45;0.00;0.00;0.62;0.00;0.00;0.62;1.30;0.80;;;22.00;21.60;;;;;;2264274;61;20642;-65
2023/04/03 05:56:30;0.00;0.00;0.62;0.00;0.00;0.62;1.43;0.70;;;22.00;21.60;;;;;;2264612;61;20892;-66
2023/04/03 05:59:17;0.00;0.00;0.62;0.00;0.00;0.62;1.30;0.70;;;21.90;21.50;;;;;;2263795;61;20356;-66
2023/04/03 06:02:02;0.00;0.00;0.62;0.00;0.00;0.62;2.03;0.60;;;21.90;21.50;;;;;;2264901;61;20364;-68
2023/04/03 06:04:48;0.00;0.00;0.62;0.00;0.00;0.62;1.30;0.70;;;22.00;21.60;;;;;;2264346;61;20403;-65
2023/04/03 06:07:33;0.00;0.00;0.62;0.00;0.00;0.62;1.93;0.90;;;21.90;21.50;;;;;;2264128;61;20395;-66
2023/04/03 06:10:18;0.00;0.00;0.62;0.00;0.00;0.62;2.17;0.80;;;22.00;21.60;;;;;;2264643;61;20438;-65
2023/04/03 06:13:03;0.00;0.00;0.62;0.00;0.00;0.62;1.43;0.80;;;21.90;21.50;;;;;;2263913;61;20441;-65
2023/04/03 06:15:49;0.00;0.00;0.62;0.00;0.00;0.62;1.53;0.80;;;21.90;21.50;;;;;;2264172;61;20423;-65
2023/04/03 06:18:35;0.00;0.00;0.62;0.00;0.00;0.62;1.40;0.70;;;21.90;21.50;;;;;;2264634;61;20407;-65
2023/04/03 06:21:20;0.00;0.00;0.62;0.00;0.00;0.62;1.40;0.70;;;21.90;21.50;;;;;;2263828;61;20434;-65
2023/04/03 06:24:06;0.00;0.00;0.62;0.00;0.00;0.62;1.40;0.80;;;21.90;21.50;;;;;;2264632;61;20364;-65
2023/04/03 06:26:52;0.00;0.00;0.62;0.00;0.00;0.62;1.67;0.80;;;21.90;21.60;;;;;;2261807;61;20423;-65
2023/04/03 06:29:36;0.00;0.00;0.62;0.00;0.00;0.62;1.40;0.70;;;21.90;21.50;;;;;;2260637;61;20459;-65
2023/04/03 06:32:23;0.00;0.00;0.62;0.00;0.00;0.62;1.20;0.60;;;21.90;21.60;;;;;;2264686;61;20908;-65
2023/04/03 06:35:09;0.00;0.00;0.62;0.00;0.00;0.62;1.70;0.70;;;21.90;21.60;;;;;;2264525;61;20446;-65
2023/04/03 06:37:53;0.00;0.00;0.62;0.00;0.00;0.62;1.40;0.77;;;21.90;21.60;;;;;;2264719;61;20379;-65
2023/04/03 06:40:38;0.00;0.00;0.62;0.00;0.00;0.62;1.47;0.70;;;21.90;21.60;;;;;;2264650;61;20488;-65
2023/04/03 06:43:24;0.00;0.00;0.62;0.00;0.00;0.62;1.30;0.60;;;21.90;21.60;;;;;;2264247;61;20494;-65
2023/04/03 06:46:15;0.00;0.00;0.62;0.00;0.00;0.62;1.40;0.70;;;21.90;21.60;;;;;;2264688;61;20865;-65
2023/04/03 06:49:01;0.00;0.00;0.62;0.00;0.00;0.62;1.97;0.87;;;21.90;21.60;;;;;;2264699;61;20396;-65
2023/04/03 06:51:46;0.00;0.00;0.62;0.00;0.00;0.62;1.40;0.80;;;21.90;21.60;;;;;;2264392;61;20395;-65
2023/04/03 06:54:31;0.00;0.00;0.62;0.00;0.00;0.62;1.60;0.80;;;21.90;21.60;;;;;;2264947;61;20394;-65
2023/04/03 06:57:16;0.00;0.00;0.62;0.00;0.00;0.62;1.47;0.73;;;21.90;21.60;;;;;;2265139;61;20801;-66
2023/04/03 07:00:01;0.00;0.00;0.62;0.00;0.00;0.62;1.83;1.20;;;21.90;21.60;;;;;;2264580;61;20352;-66
2023/04/03 07:02:46;0.00;0.00;0.62;0.00;0.00;0.62;1.43;0.73;;;21.90;21.60;;;;;;2265859;61;20407;-65
2023/04/03 07:05:33;0.00;0.00;0.62;0.00;0.00;0.62;1.60;0.80;;;21.90;22.10;;;;;;2378282;45;20372;-69
2023/04/03 07:08:18;0.00;0.00;0.62;0.00;0.00;0.62;1.60;1.00;;;21.90;21.60;;;;;;2261366;61;20380;-66
2023/04/03 07:11:03;0.00;0.00;0.62;0.00;0.00;0.62;2.30;0.90;;;21.90;21.60;;;;;;2261281;61;20401;-66
2023/04/03 07:13:48;0.00;0.00;0.62;0.00;0.00;0.62;1.60;1.00;;;21.90;21.60;;;;;;2257876;61;20345;-66
2023/04/03 07:16:33;0.00;0.00;0.62;0.00;0.00;0.62;1.50;0.90;;;21.90;21.60;;;;;;2261702;61;20794;-65
2023/04/03 07:19:18;0.00;0.00;0.62;0.00;0.00;0.62;1.50;0.80;;;21.80;21.60;;;;;;2261502;61;20441;-66
2023/04/03 07:22:04;0.00;0.00;0.62;0.00;0.00;0.62;1.63;0.80;;;21.80;21.60;;;;;;2261165;61;20544;-65
2023/04/03 07:24:51;0.00;0.00;0.62;0.00;0.00;0.62;1.30;0.70;;;21.90;21.70;;;;;;2261749;61;20372;-65
2023/04/03 07:27:36;0.00;0.00;0.62;0.00;0.00;0.62;1.53;0.80;;;21.80;21.60;;;;;;2260856;61;20480;-65
2023/04/03 07:30:21;0.00;0.00;0.62;0.00;0.00;0.62;1.40;0.80;;;21.80;21.60;;;;;;2261068;61;20420;-66
2023/04/03 07:33:06;0.00;0.00;0.62;0.00;0.00;0.62;1.77;0.80;;;21.80;21.60;;;;;;2261503;61;20369;-65
2023/04/03 07:35:50;0.00;0.00;0.62;0.00;0.00;0.62;1.80;1.10;;;21.80;21.60;;;;;;2261238;61;20384;-66
2023/04/03 07:38:37;0.00;0.00;0.62;0.00;0.00;0.62;1.53;0.93;;;21.90;21.70;;;;;;2261520;61;20368;-66
2023/04/03 07:41:22;0.00;0.00;0.62;0.00;0.00;0.62;1.40;0.77;;;21.90;21.70;;;;;;2258195;61;20365;-65
2023/04/03 07:44:09;0.00;0.00;0.62;0.00;0.00;0.62;2.83;1.37;;;21.80;21.60;;;;;;2260786;61;20372;-65
2023/04/03 07:46:57;0.00;0.00;0.62;0.00;0.00;0.62;2.70;1.30;;;21.90;21.70;;;;;;2261413;61;20393;-65
2023/04/03 07:49:43;0.00;0.00;0.62;0.00;0.00;0.62;2.33;1.30;;;21.90;21.70;;;;;;2261009;61;20808;-65
2023/04/03 07:52:28;0.00;0.00;0.62;0.00;0.00;0.62;1.90;1.40;;;21.80;21.60;;;;;;2261556;61;20416;-66
2023/04/03 07:55:14;0.00;0.00;0.62;0.00;0.00;0.62;2.43;1.70;;;21.80;21.60;;;;;;2261375;61;20589;-66
2023/04/03 07:57:59;0.00;0.00;0.62;0.00;0.00;0.62;2.43;1.67;;;21.90;21.70;;;;;;2261357;61;20910;-69
2023/04/03 08:00:44;0.00;0.00;0.62;0.00;0.00;0.62;2.53;1.80;;;21.90;21.70;;;;;;2261059;61;20434;-65
2023/04/03 08:03:29;0.00;0.00;0.62;0.00;0.00;0.62;2.93;2.10;;;21.80;21.60;;;;;;2261312;61;20507;-65
2023/04/03 08:06:14;0.00;0.00;0.62;0.00;0.00;0.62;3.57;2.10;;;21.80;21.60;;;;;;2261056;61;20431;-66
2023/04/03 08:08:59;0.00;0.00;0.62;0.00;0.00;0.62;2.70;1.90;;;21.80;21.60;;;;;;2261099;61;20381;-63
2023/04/03 08:11:46;0.00;0.00;0.62;0.00;0.00;0.62;2.83;2.00;;;21.80;21.60;;;;;;2257740;61;20426;-65
2023/04/03 08:14:34;0.00;0.00;0.62;0.00;0.00;0.62;2.63;2.00;;;21.80;21.60;;;;;;2261159;61;20365;-65
2023/04/03 08:17:19;0.00;0.00;0.62;0.00;0.00;0.62;3.53;2.43;;;21.80;21.60;;;;;;2261217;61;20389;-66
2023/04/03 08:20:06;0.00;0.00;0.62;0.00;0.00;0.62;4.27;2.50;;;21.80;21.60;;;;;;2263655;61;20445;-64
2023/04/03 08:22:51;0.00;0.00;0.62;0.00;0.00;0.62;4.07;2.90;;;21.80;21.60;;;;;;2265221;61;20387;-65
2023/04/03 08:25:38;0.00;0.00;0.62;0.00;0.00;0.62;3.13;2.17;;;21.90;21.70;;;;;;2262419;61;20614;-65
2023/04/03 08:28:24;0.00;0.00;0.62;0.00;0.00;0.62;3.33;2.03;;;21.80;21.70;;;;;;2264750;61;20472;-65
2023/04/03 08:31:13;0.00;0.00;0.62;0.00;0.00;0.62;2.90;1.80;;;21.90;21.70;;;;;;2265300;61;20523;-65
2023/04/03 08:33:58;0.00;0.00;0.62;0.00;0.00;0.62;2.57;1.87;;;21.80;21.70;;;;;;2265008;61;20363;-64
2023/04/03 08:36:43;0.00;0.00;0.62;0.00;0.00;0.62;3.23;2.27;;;21.90;21.70;;;;;;2265126;61;20379;-64
2023/04/03 08:39:28;0.00;0.00;0.62;0.00;0.00;0.62;3.07;2.30;;;21.80;21.70;;;;;;2264674;61;20406;-64
2023/04/03 08:42:24;0.00;0.00;0.62;0.00;0.00;0.62;2.90;2.23;;;21.80;21.60;;;;;;2264982;61;20375;-65
2023/04/03 08:45:14;0.00;0.00;0.62;0.00;0.00;0.62;3.70;2.20;;;21.90;21.70;;;;;;2265010;61;20849;-65
2023/04/03 08:48:07;0.00;0.00;0.62;0.00;0.00;0.62;2.70;1.90;;;21.90;21.70;;;;;;2265490;61;20403;-64
2023/04/03 08:50:57;0.00;0.00;0.62;0.00;0.00;0.62;2.33;1.80;;;21.80;21.60;;;;;;2265094;61;20551;-64
2023/04/03 08:53:50;0.00;0.00;0.62;0.00;0.00;0.62;3.33;2.17;;;21.90;21.70;;;;;;2265285;61;20364;-66
2023/04/03 08:56:36;0.00;0.00;0.62;0.00;0.00;0.62;3.13;2.10;;;21.90;21.70;;;;;;2264674;61;20388;-65
2023/04/03 08:59:29;0.00;0.00;0.62;0.00;0.00;0.62;3.67;2.47;;;21.90;21.70;;;;;;2264744;61;20368;-68
2023/04/03 09:02:28;0.00;0.00;0.62;0.00;0.00;0.62;3.73;2.60;;;21.90;21.70;;;;;;2265450;61;20357;-70
2023/04/03 09:05:18;0.00;0.00;0.62;0.00;0.00;0.62;3.10;2.50;;;21.90;21.70;;;;;;2264773;61;20802;-64
2023/04/03 09:08:12;0.00;0.00;0.62;0.00;0.00;0.62;4.57;2.53;;;21.90;21.70;;;;;;2262139;61;20384;-64
2023/04/03 09:11:13;0.00;0.00;0.62;0.00;0.00;0.62;2.83;2.10;;;21.90;21.70;;;;;;2261335;61;20380;-66
2023/04/03 09:14:04;0.00;0.00;0.62;0.00;0.00;0.62;4.60;3.07;;;21.90;21.70;;;;;;2265122;61;20401;-65
2023/04/03 09:16:55;0.00;0.00;0.62;0.00;0.00;0.62;3.93;2.73;;;21.90;21.70;;;;;;2267766;61;20462;-65
2023/04/03 09:19:49;0.00;0.00;0.62;0.00;0.00;0.62;2.90;2.30;;;21.90;21.70;;;;;;2264556;61;20761;-65
2023/04/03 09:22:39;0.00;0.00;0.62;0.00;0.00;0.62;3.40;2.00;;;21.90;21.70;;;;;;2265173;61;20399;-65
2023/04/03 09:25:27;0.00;0.00;0.62;0.00;0.00;0.62;2.93;2.00;;;21.90;21.70;;;;;;2264792;61;20971;-65
2023/04/03 09:28:12;0.00;0.00;0.62;0.00;0.00;0.62;2.73;2.07;;;21.90;21.70;;;;;;2264912;61;20476;-65
2023/04/03 09:30:59;0.00;0.00;0.62;0.00;0.00;0.62;2.50;1.47;;;21.90;21.70;;;;;;2264745;61;20785;-64
2023/04/03 09:33:45;0.00;0.00;0.62;0.00;0.00;0.62;3.20;2.13;;;21.90;21.70;;;;;;2261580;61;20368;-65
2023/04/03 09:36:43;0.00;0.00;0.62;0.00;0.00;0.62;3.17;2.10;;;21.90;21.70;;;;;;2264988;61;20383;-65
2023/04/03 09:39:29;0.00;0.00;0.62;0.00;0.00;0.62;2.50;1.97;;;21.90;21.70;;;;;;2261666;61;20356;-65
2023/04/03 09:42:20;0.00;0.00;0.62;0.00;0.00;0.62;2.50;1.90;;;21.90;21.70;;;;;;2264490;61;20367;-65
2023/04/03 09:45:21;0.00;0.00;0.62;0.00;0.00;0.62;2.90;2.00;;;21.90;21.70;;;;;;2265319;61;20361;-65
2023/04/03 09:48:15;0.00;0.00;0.62;0.00;0.00;0.62;2.90;2.03;;;22.00;21.80;;;;;;2258750;61;20387;-64
2023/04/03 09:51:02;0.00;0.00;0.62;0.00;0.00;0.62;2.83;2.03;;;22.00;21.80;;;;;;2264786;61;20491;-65
2023/04/03 09:53:48;0.00;0.00;0.62;0.00;0.00;0.62;2.57;1.70;;;22.00;21.80;;;;;;2265159;61;20866;-65
2023/04/03 09:56:34;0.00;0.00;0.62;0.00;0.00;0.62;2.57;1.97;;;22.00;21.80;;;;;;2264746;61;21044;-65
2023/04/03 09:59:19;0.00;0.00;0.62;0.00;0.00;0.62;2.20;1.40;;;22.00;21.80;;;;;;2264946;61;20388;-66
2023/04/03 10:02:23;0.00;0.00;0.62;0.00;0.00;0.62;2.40;1.67;;;22.00;21.80;;;;;;2265492;61;20364;-65
2023/04/03 10:05:35;0.00;0.00;0.62;0.00;0.00;0.62;2.57;1.87;;;22.00;21.80;;;;;;2264955;61;20351;-65
2023/04/03 10:08:24;0.00;0.00;0.62;0.00;0.00;0.62;1.80;1.20;;;22.00;21.80;;;;;;2265062;61;20923;-64
2023/04/03 10:11:15;0.00;0.00;0.62;0.00;0.00;0.62;2.43;1.63;;;22.00;21.70;;;;;;2264323;61;20387;-64
2023/04/03 10:14:03;0.00;0.00;0.62;0.00;0.00;0.62;2.00;1.60;;;22.00;21.70;;;;;;2265272;61;20372;-65
2023/04/03 10:16:57;0.00;0.00;0.62;0.00;0.00;0.62;2.20;1.33;;;22.10;21.80;;;;;;2264994;61;20919;-65
2023/04/03 10:19:46;0.00;0.00;0.62;0.00;0.00;0.62;2.10;1.60;;;22.10;21.80;;;;;;2264669;61;20442;-65
2023/04/03 10:22:42;0.00;0.00;0.62;0.00;0.00;0.62;2.80;2.00;;;22.10;21.80;;;;;;2262030;61;20364;-66
2023/04/03 10:25:34;0.00;0.00;0.62;0.00;0.00;0.62;2.73;1.70;;;22.10;21.80;;;;;;2264222;61;20778;-64
2023/04/03 10:28:27;0.00;0.00;0.62;0.00;0.00;0.62;2.13;1.70;;;22.10;21.90;;;;;;2261953;61;20360;-69
2023/04/03 10:31:21;0.00;0.00;0.62;0.00;0.00;0.62;2.80;2.10;;;22.10;21.80;;;;;;2264818;61;20368;-65
2023/04/03 10:34:17;0.00;0.00;0.62;0.00;0.00;0.62;3.20;2.23;;;22.10;21.70;;;;;;2264531;61;20819;-65
2023/04/03 10:37:11;0.00;0.00;0.62;0.00;0.00;0.62;3.27;2.43;;;22.10;21.70;;;;;;2266029;61;20379;-65
2023/04/03 10:40:02;0.00;0.00;0.62;0.00;0.00;0.62;3.47;2.47;;;22.10;21.70;;;;;;2264647;61;20471;-65
2023/04/03 10:42:55;0.00;0.00;0.62;0.00;0.00;0.62;3.67;2.80;;;22.10;21.70;;;;;;2265519;61;20372;-65
2023/04/03 10:46:09;0.00;0.00;0.62;0.00;0.00;0.62;3.43;2.60;;;22.10;21.70;;;;;;2265158;61;20399;-66
2023/04/03 10:49:10;0.00;0.00;0.62;0.00;0.00;0.62;3.70;2.60;;;22.10;21.70;;;;;;2265181;61;20417;-65
2023/04/03 10:52:05;0.00;0.00;0.62;0.00;0.00;0.62;3.13;2.60;;;22.10;21.70;;;;;;2265723;61;20363;-67
2023/04/03 10:55:02;0.00;0.00;0.62;0.00;0.00;0.62;2.93;2.63;;;22.20;21.70;;;;;;2265223;61;20483;-66
2023/04/03 10:57:49;0.00;0.00;0.62;0.00;0.00;0.62;2.90;2.60;;;22.20;21.70;;;;;;2265514;61;20387;-65
2023/04/03 11:00:41;0.00;0.00;0.62;0.00;0.00;0.62;3.97;2.90;;;22.20;21.80;;;;;;2265541;61;20376;-64